Pelican Narrows, Canada
Current Conditions -  °F | °C
As of 2:00 PM on Wednesday 26 Nov 2014 (Local Time) from CYVC Reporting Station
Clear Clear  
Wind Chill: -4°   Ceiling: Unl
Heat Index: -4°   Visibility: 15mi
Dew Point: -9°   Wind: 3mph
Humidity: 78%   Direction: 150°SSE
Pressure: 30.4"   Gusts: NA
Location:  55.17°N, 102.95°W
Report Text: CYVC 262000Z 15003KT 15SM SKC M20/M23 A3040 RMK SLP342
Loading
Personal Weather Stations






























Interactive Weather Map New forecast layout! Learn more

10-Day Weather Forecast

Advertisements
Track Severe Weather on mobile